sensor_id;sensor_type;location;lat;lon;timestamp;temperature;humidity
24232;DHT22;12364;47.810;8.810;2023-03-01T04:47:27;4.90;88.80
24232;DHT22;12364;47.810;8.810;2023-03-01T04:49:54;5.10;88.90
24232;DHT22;12364;47.810;8.810;2023-03-01T04:52:21;4.90;88.60
24232;DHT22;12364;47.810;8.810;2023-03-01T04:54:48;5.10;88.60
24232;DHT22;12364;47.810;8.810;2023-03-01T04:57:15;4.90;88.50
24232;DHT22;12364;47.810;8.810;2023-03-01T04:59:42;4.90;88.60
24232;DHT22;12364;47.810;8.810;2023-03-01T05:02:10;4.90;88.60
24232;DHT22;12364;47.810;8.810;2023-03-01T05:04:38;5.10;88.70
24232;DHT22;12364;47.810;8.810;2023-03-01T05:07:05;5.10;88.50
24232;DHT22;12364;47.810;8.810;2023-03-01T05:09:34;5.10;88.60
24232;DHT22;12364;47.810;8.810;2023-03-01T05:12:01;4.90;88.60
24232;DHT22;12364;47.810;8.810;2023-03-01T05:14:28;5.00;88.50
24232;DHT22;12364;47.810;8.810;2023-03-01T05:16:56;4.90;88.80
24232;DHT22;12364;47.810;8.810;2023-03-01T05:19:30;4.90;88.80
24232;DHT22;12364;47.810;8.810;2023-03-01T05:21:58;4.90;88.80
24232;DHT22;12364;47.810;8.810;2023-03-01T05:24:32;4.80;88.70
24232;DHT22;12364;47.810;8.810;2023-03-01T05:27:00;5.00;88.70
24232;DHT22;12364;47.810;8.810;2023-03-01T05:29:28;5.20;88.70
24232;DHT22;12364;47.810;8.810;2023-03-01T05:31:57;4.80;88.20
24232;DHT22;12364;47.810;8.810;2023-03-01T05:34:25;4.80;88.30
24232;DHT22;12364;47.810;8.810;2023-03-01T05:36:52;4.80;88.50
24232;DHT22;12364;47.810;8.810;2023-03-01T05:39:20;5.10;89.00
24232;DHT22;12364;47.810;8.810;2023-03-01T05:41:48;5.10;89.10
24232;DHT22;12364;47.810;8.810;2023-03-01T05:44:18;5.00;88.80
24232;DHT22;12364;47.810;8.810;2023-03-01T05:46:45;4.80;88.50
24232;DHT22;12364;47.810;8.810;2023-03-01T05:49:13;4.90;88.60
24232;DHT22;12364;47.810;8.810;2023-03-01T05:51:41;4.80;88.80
24232;DHT22;12364;47.810;8.810;2023-03-01T05:54:10;4.90;89.30
24232;DHT22;12364;47.810;8.810;2023-03-01T05:56:37;4.90;89.60
24232;DHT22;12364;47.810;8.810;2023-03-01T05:59:04;4.80;89.30
24232;DHT22;12364;47.810;8.810;2023-03-01T06:01:32;4.80;89.50
24232;DHT22;12364;47.810;8.810;2023-03-01T06:04:00;4.90;89.70
24232;DHT22;12364;47.810;8.810;2023-03-01T06:06:27;4.90;89.40
24232;DHT22;12364;47.810;8.810;2023-03-01T06:08:55;4.90;89.30
24232;DHT22;12364;47.810;8.810;2023-03-01T06:11:22;4.70;89.20
24232;DHT22;12364;47.810;8.810;2023-03-01T06:13:49;4.80;89.60
24232;DHT22;12364;47.810;8.810;2023-03-01T06:16:16;4.60;89.40
24232;DHT22;12364;47.810;8.810;2023-03-01T06:18:43;4.70;89.60
24232;DHT22;12364;47.810;8.810;2023-03-01T06:21:10;4.60;89.60
24232;DHT22;12364;47.810;8.810;2023-03-01T06:23:38;4.70;89.90
24232;DHT22;12364;47.810;8.810;2023-03-01T06:26:06;4.50;89.80
24232;DHT22;12364;47.810;8.810;2023-03-01T06:28:34;4.60;89.90
24232;DHT22;12364;47.810;8.810;2023-03-01T06:31:02;4.50;89.80
24232;DHT22;12364;47.810;8.810;2023-03-01T06:33:29;4.40;89.70
24232;DHT22;12364;47.810;8.810;2023-03-01T06:35:56;4.80;89.60
24232;DHT22;12364;47.810;8.810;2023-03-01T06:38:24;4.80;89.60
24232;DHT22;12364;47.810;8.810;2023-03-01T06:40:55;4.70;90.00
24232;DHT22;12364;47.810;8.810;2023-03-01T06:43:23;4.50;90.00
24232;DHT22;12364;47.810;8.810;2023-03-01T06:45:50;4.50;90.00
24232;DHT22;12364;47.810;8.810;2023-03-01T06:48:18;4.40;90.00
24232;DHT22;12364;47.810;8.810;2023-03-01T06:50:45;4.60;90.10
24232;DHT22;12364;47.810;8.810;2023-03-01T06:53:15;4.50;90.10
24232;DHT22;12364;47.810;8.810;2023-03-01T06:55:42;4.60;90.20
24232;DHT22;12364;47.810;8.810;2023-03-01T06:58:09;4.60;90.10
24232;DHT22;12364;47.810;8.810;2023-03-01T07:00:37;4.70;90.10
24232;DHT22;12364;47.810;8.810;2023-03-01T07:03:07;4.60;90.10
24232;DHT22;12364;47.810;8.810;2023-03-01T07:05:35;4.70;90.00
24232;DHT22;12364;47.810;8.810;2023-03-01T07:08:02;4.50;90.00
24232;DHT22;12364;47.810;8.810;2023-03-01T07:10:29;4.80;90.00
24232;DHT22;12364;47.810;8.810;2023-03-01T07:12:57;4.70;90.00
24232;DHT22;12364;47.810;8.810;2023-03-01T07:15:25;4.70;90.00
24232;DHT22;12364;47.810;8.810;2023-03-01T07:17:52;4.70;90.00
24232;DHT22;12364;47.810;8.810;2023-03-01T07:20:19;4.70;89.80
24232;DHT22;12364;47.810;8.810;2023-03-01T07:22:52;4.70;90.00
24232;DHT22;12364;47.810;8.810;2023-03-01T07:25:25;4.30;89.70
24232;DHT22;12364;47.810;8.810;2023-03-01T07:27:53;4.60;89.90
24232;DHT22;12364;47.810;8.810;2023-03-01T07:30:21;4.40;90.00
24232;DHT22;12364;47.810;8.810;2023-03-01T07:32:48;4.60;90.10
24232;DHT22;12364;47.810;8.810;2023-03-01T07:35:22;4.50;90.00
24232;DHT22;12364;47.810;8.810;2023-03-01T07:37:52;4.40;90.00
24232;DHT22;12364;47.810;8.810;2023-03-01T07:40:19;4.60;90.00
24232;DHT22;12364;47.810;8.810;2023-03-01T07:42:46;4.60;90.00
24232;DHT22;12364;47.810;8.810;2023-03-01T07:45:14;4.60;89.80
24232;DHT22;12364;47.810;8.810;2023-03-01T07:47:43;4.60;89.90
24232;DHT22;12364;47.810;8.810;2023-03-01T07:50:11;4.40;89.70
24232;DHT22;12364;47.810;8.810;2023-03-01T07:52:38;4.40;89.70
24232;DHT22;12364;47.810;8.810;2023-03-01T07:55:06;4.60;89.80
24232;DHT22;12364;47.810;8.810;2023-03-01T07:57:33;4.40;89.50
24232;DHT22;12364;47.810;8.810;2023-03-01T08:00:00;4.50;89.70
24232;DHT22;12364;47.810;8.810;2023-03-01T08:02:28;4.30;89.80
24232;DHT22;12364;47.810;8.810;2023-03-01T08:04:55;4.40;90.00
24232;DHT22;12364;47.810;8.810;2023-03-01T08:07:22;4.20;90.10
24232;DHT22;12364;47.810;8.810;2023-03-01T08:09:49;4.30;90.20
24232;DHT22;12364;47.810;8.810;2023-03-01T08:12:16;4.40;90.20
24232;DHT22;12364;47.810;8.810;2023-03-01T08:14:43;4.20;90.00
24232;DHT22;12364;47.810;8.810;2023-03-01T08:17:13;4.10;90.10
24232;DHT22;12364;47.810;8.810;2023-03-01T08:19:40;4.30;90.30
24232;DHT22;12364;47.810;8.810;2023-03-01T08:22:07;4.20;90.30
24232;DHT22;12364;47.810;8.810;2023-03-01T08:24:34;4.30;90.20
24232;DHT22;12364;47.810;8.810;2023-03-01T08:27:01;4.20;90.00
24232;DHT22;12364;47.810;8.810;2023-03-01T08:29:32;4.40;90.20
24232;DHT22;12364;47.810;8.810;2023-03-01T08:32:00;4.20;90.20
24232;DHT22;12364;47.810;8.810;2023-03-01T08:34:27;4.20;90.10
24232;DHT22;12364;47.810;8.810;2023-03-01T08:36:54;4.20;90.10
24232;DHT22;12364;47.810;8.810;2023-03-01T08:39:21;4.20;90.30
24232;DHT22;12364;47.810;8.810;2023-03-01T08:41:49;4.10;90.30
24232;DHT22;12364;47.810;8.810;2023-03-01T08:44:16;4.30;90.40
24232;DHT22;12364;47.810;8.810;2023-03-01T08:46:43;4.40;90.40
24232;DHT22;12364;47.810;8.810;2023-03-01T08:49:18;4.50;90.30
24232;DHT22;12364;47.810;8.810;2023-03-01T08:51:47;4.40;90.20
24232;DHT22;12364;47.810;8.810;2023-03-01T08:54:15;4.60;90.20
24232;DHT22;12364;47.810;8.810;2023-03-01T08:56:45;4.70;90.20
24232;DHT22;12364;47.810;8.810;2023-03-01T08:59:12;4.70;90.10
24232;DHT22;12364;47.810;8.810;2023-03-01T09:01:40;4.40;89.80
24232;DHT22;12364;47.810;8.810;2023-03-01T09:04:11;4.40;89.90
24232;DHT22;12364;47.810;8.810;2023-03-01T09:06:38;4.60;90.10
24232;DHT22;12364;47.810;8.810;2023-03-01T09:09:05;4.60;90.10
24232;DHT22;12364;47.810;8.810;2023-03-01T09:11:33;4.70;90.00
24232;DHT22;12364;47.810;8.810;2023-03-01T09:14:00;4.70;89.90
24232;DHT22;12364;47.810;8.810;2023-03-01T09:16:27;4.30;89.90
24232;DHT22;12364;47.810;8.810;2023-03-01T09:18:57;4.40;89.80
24232;DHT22;12364;47.810;8.810;2023-03-01T09:21:24;4.50;90.10
24232;DHT22;12364;47.810;8.810;2023-03-01T09:24:12;4.60;90.20
24232;DHT22;12364;47.810;8.810;2023-03-01T09:26:40;4.50;90.10
24232;DHT22;12364;47.810;8.810;2023-03-01T09:29:07;4.60;90.00
24232;DHT22;12364;47.810;8.810;2023-03-01T09:31:39;4.80;90.00
24232;DHT22;12364;47.810;8.810;2023-03-01T09:34:07;4.60;89.60
24232;DHT22;12364;47.810;8.810;2023-03-01T09:36:35;4.60;89.80
24232;DHT22;12364;47.810;8.810;2023-03-01T09:39:02;4.80;90.00
24232;DHT22;12364;47.810;8.810;2023-03-01T09:46:41;4.60;89.70
24232;DHT22;12364;47.810;8.810;2023-03-01T09:49:14;4.60;89.60
24232;DHT22;12364;47.810;8.810;2023-03-01T09:51:56;4.60;89.70
24232;DHT22;12364;47.810;8.810;2023-03-01T09:54:24;4.60;89.70
24232;DHT22;12364;47.810;8.810;2023-03-01T09:59:39;4.50;89.60
24232;DHT22;12364;47.810;8.810;2023-03-01T10:04:45;4.40;89.70
24232;DHT22;12364;47.810;8.810;2023-03-01T10:09:52;4.30;89.60
24232;DHT22;12364;47.810;8.810;2023-03-01T10:12:24;4.60;89.70
24232;DHT22;12364;47.810;8.810;2023-03-01T10:17:39;4.50;89.70
24232;DHT22;12364;47.810;8.810;2023-03-01T10:22:41;4.60;89.60
24232;DHT22;12364;47.810;8.810;2023-03-01T10:25:09;4.60;89.40
24232;DHT22;12364;47.810;8.810;2023-03-01T10:27:53;4.60;89.40
24232;DHT22;12364;47.810;8.810;2023-03-01T10:30:22;4.60;89.50
24232;DHT22;12364;47.810;8.810;2023-03-01T10:32:55;4.80;89.20
24232;DHT22;12364;47.810;8.810;2023-03-01T10:35:25;4.60;89.10
24232;DHT22;12364;47.810;8.810;2023-03-01T10:40:25;4.50;89.80
24232;DHT22;12364;47.810;8.810;2023-03-01T10:42:52;4.70;89.70
24232;DHT22;12364;47.810;8.810;2023-03-01T10:48:39;4.60;89.30
24232;DHT22;12364;47.810;8.810;2023-03-01T10:50:49;4.40;89.10
24232;DHT22;12364;47.810;8.810;2023-03-01T10:53:21;4.70;89.70
24232;DHT22;12364;47.810;8.810;2023-03-01T10:55:57;4.60;89.20
24232;DHT22;12364;47.810;8.810;2023-03-01T10:58:26;4.40;89.20
24232;DHT22;12364;47.810;8.810;2023-03-01T11:00:54;4.70;89.90
24232;DHT22;12364;47.810;8.810;2023-03-01T11:03:22;4.70;89.30
24232;DHT22;12364;47.810;8.810;2023-03-01T11:05:51;4.80;88.80
24232;DHT22;12364;47.810;8.810;2023-03-01T11:08:32;4.90;89.00
24232;DHT22;12364;47.810;8.810;2023-03-01T11:11:05;5.00;88.90
24232;DHT22;12364;47.810;8.810;2023-03-01T11:13:32;5.00;88.70
24232;DHT22;12364;47.810;8.810;2023-03-01T11:16:00;5.00;88.60
24232;DHT22;12364;47.810;8.810;2023-03-01T11:18:27;5.00;88.80
24232;DHT22;12364;47.810;8.810;2023-03-01T11:21:13;5.00;88.70
24232;DHT22;12364;47.810;8.810;2023-03-01T11:23:40;5.10;88.70
24232;DHT22;12364;47.810;8.810;2023-03-01T11:26:08;5.00;88.40
24232;DHT22;12364;47.810;8.810;2023-03-01T11:28:39;5.10;88.80
24232;DHT22;12364;47.810;8.810;2023-03-01T11:31:07;5.10;88.50
24232;DHT22;12364;47.810;8.810;2023-03-01T11:38:32;5.10;88.10
24232;DHT22;12364;47.810;8.810;2023-03-01T11:43:33;5.00;88.00
24232;DHT22;12364;47.810;8.810;2023-03-01T11:57:04;4.70;88.70
24232;DHT22;12364;47.810;8.810;2023-03-01T12:00:23;4.70;88.50
24232;DHT22;12364;47.810;8.810;2023-03-01T12:08:17;4.70;88.70
24232;DHT22;12364;47.810;8.810;2023-03-01T12:20:46;4.80;88.30
24232;DHT22;12364;47.810;8.810;2023-03-01T12:23:27;4.90;88.80
24232;DHT22;12364;47.810;8.810;2023-03-01T12:26:09;4.90;88.60
24232;DHT22;12364;47.810;8.810;2023-03-01T12:31:25;4.90;88.20
24232;DHT22;12364;47.810;8.810;2023-03-01T12:34:03;4.90;88.50
24232;DHT22;12364;47.810;8.810;2023-03-01T12:47:17;5.00;88.20
24232;DHT22;12364;47.810;8.810;2023-03-01T12:49:48;5.00;88.60
24232;DHT22;12364;47.810;8.810;2023-03-01T12:52:18;5.00;88.10
24232;DHT22;12364;47.810;8.810;2023-03-01T12:54:49;4.90;88.50
24232;DHT22;12364;47.810;8.810;2023-03-01T12:57:23;4.90;88.70
24232;DHT22;12364;47.810;8.810;2023-03-01T13:02:38;5.10;88.50
24232;DHT22;12364;47.810;8.810;2023-03-01T13:15:27;5.20;87.70
24232;DHT22;12364;47.810;8.810;2023-03-01T13:18:02;5.20;87.80
24232;DHT22;12364;47.810;8.810;2023-03-01T13:20:31;5.20;87.80
24232;DHT22;12364;47.810;8.810;2023-03-01T13:23:01;5.20;88.00
24232;DHT22;12364;47.810;8.810;2023-03-01T13:25:28;5.10;88.10
24232;DHT22;12364;47.810;8.810;2023-03-01T13:30:53;5.10;87.90
24232;DHT22;12364;47.810;8.810;2023-03-01T13:35:49;5.20;88.60
24232;DHT22;12364;47.810;8.810;2023-03-01T13:41:03;5.40;87.90
24232;DHT22;12364;47.810;8.810;2023-03-01T13:43:37;5.40;87.80
24232;DHT22;12364;47.810;8.810;2023-03-01T13:46:09;5.40;87.90
24232;DHT22;12364;47.810;8.810;2023-03-01T13:48:38;5.40;87.90
24232;DHT22;12364;47.810;8.810;2023-03-01T13:51:07;5.60;88.10
24232;DHT22;12364;47.810;8.810;2023-03-01T13:53:36;5.50;88.00
24232;DHT22;12364;47.810;8.810;2023-03-01T13:56:07;5.50;87.70
24232;DHT22;12364;47.810;8.810;2023-03-01T13:58:44;5.60;87.60
24232;DHT22;12364;47.810;8.810;2023-03-01T14:03:48;5.70;87.70
24232;DHT22;12364;47.810;8.810;2023-03-01T14:06:16;5.90;87.50
24232;DHT22;12364;47.810;8.810;2023-03-01T14:08:48;5.70;87.30
24232;DHT22;12364;47.810;8.810;2023-03-01T14:13:48;5.70;87.00
24232;DHT22;12364;47.810;8.810;2023-03-01T14:16:23;5.70;86.80
24232;DHT22;12364;47.810;8.810;2023-03-01T14:21:21;5.60;87.40
24232;DHT22;12364;47.810;8.810;2023-03-01T14:23:49;5.60;87.40
24232;DHT22;12364;47.810;8.810;2023-03-01T14:26:19;5.60;87.60
24232;DHT22;12364;47.810;8.810;2023-03-01T14:28:47;5.60;87.40
24232;DHT22;12364;47.810;8.810;2023-03-01T14:34:18;5.70;87.30
24232;DHT22;12364;47.810;8.810;2023-03-01T14:36:45;5.70;87.50
24232;DHT22;12364;47.810;8.810;2023-03-01T14:39:16;5.60;87.10
24232;DHT22;12364;47.810;8.810;2023-03-01T14:41:43;5.60;87.40
24232;DHT22;12364;47.810;8.810;2023-03-01T14:44:19;5.70;87.50
24232;DHT22;12364;47.810;8.810;2023-03-01T14:46:51;5.80;87.60
24232;DHT22;12364;47.810;8.810;2023-03-01T14:49:20;5.80;87.30
24232;DHT22;12364;47.810;8.810;2023-03-01T14:56:51;5.70;87.30
24232;DHT22;12364;47.810;8.810;2023-03-01T14:59:22;5.70;87.30
24232;DHT22;12364;47.810;8.810;2023-03-01T15:01:50;5.80;87.40
24232;DHT22;12364;47.810;8.810;2023-03-01T15:04:18;5.90;87.20
24232;DHT22;12364;47.810;8.810;2023-03-01T15:06:46;5.90;86.70
24232;DHT22;12364;47.810;8.810;2023-03-01T15:09:14;6.00;87.10
24232;DHT22;12364;47.810;8.810;2023-03-01T15:11:44;5.90;87.20
24232;DHT22;12364;47.810;8.810;2023-03-01T15:16:57;6.00;87.20
24232;DHT22;12364;47.810;8.810;2023-03-01T15:19:24;6.00;87.50
24232;DHT22;12364;47.810;8.810;2023-03-01T15:21:54;6.10;86.80
24232;DHT22;12364;47.810;8.810;2023-03-01T15:24:25;6.10;86.90
24232;DHT22;12364;47.810;8.810;2023-03-01T15:26:57;6.20;86.80
24232;DHT22;12364;47.810;8.810;2023-03-01T15:29:29;6.20;86.50
24232;DHT22;12364;47.810;8.810;2023-03-01T15:32:00;6.30;86.60
24232;DHT22;12364;47.810;8.810;2023-03-01T15:34:34;6.30;86.30
24232;DHT22;12364;47.810;8.810;2023-03-01T15:37:04;6.30;86.70
24232;DHT22;12364;47.810;8.810;2023-03-01T15:39:42;6.30;86.70
24232;DHT22;12364;47.810;8.810;2023-03-01T15:42:13;6.40;86.50
24232;DHT22;12364;47.810;8.810;2023-03-01T15:44:43;6.50;86.30
24232;DHT22;12364;47.810;8.810;2023-03-01T15:47:22;6.50;86.00
24232;DHT22;12364;47.810;8.810;2023-03-01T15:49:50;6.60;86.40
24232;DHT22;12364;47.810;8.810;2023-03-01T15:52:23;6.60;86.20
24232;DHT22;12364;47.810;8.810;2023-03-01T15:54:56;6.70;86.10
24232;DHT22;12364;47.810;8.810;2023-03-01T15:57:23;6.70;86.20
24232;DHT22;12364;47.810;8.810;2023-03-01T15:59:51;6.70;86.30
24232;DHT22;12364;47.810;8.810;2023-03-01T16:02:18;6.80;86.40
24232;DHT22;12364;47.810;8.810;2023-03-01T16:04:47;6.80;86.40
24232;DHT22;12364;47.810;8.810;2023-03-01T16:07:17;6.80;85.90
24232;DHT22;12364;47.810;8.810;2023-03-01T16:09:44;6.90;85.90
24232;DHT22;12364;47.810;8.810;2023-03-01T16:12:12;6.90;86.00
24232;DHT22;12364;47.810;8.810;2023-03-01T16:14:40;6.80;86.00
24232;DHT22;12364;47.810;8.810;2023-03-01T16:17:07;7.00;86.30
24232;DHT22;12364;47.810;8.810;2023-03-01T16:19:37;6.90;86.30
24232;DHT22;12364;47.810;8.810;2023-03-01T16:22:04;6.90;86.20
24232;DHT22;12364;47.810;8.810;2023-03-01T16:24:31;6.90;86.30
24232;DHT22;12364;47.810;8.810;2023-03-01T16:26:58;6.90;86.20
24232;DHT22;12364;47.810;8.810;2023-03-01T16:29:25;6.90;86.00
24232;DHT22;12364;47.810;8.810;2023-03-01T16:31:53;6.90;86.00
24232;DHT22;12364;47.810;8.810;2023-03-01T16:34:20;6.90;86.10
24232;DHT22;12364;47.810;8.810;2023-03-01T16:36:48;6.90;86.00
24232;DHT22;12364;47.810;8.810;2023-03-01T16:39:16;6.90;86.00
24232;DHT22;12364;47.810;8.810;2023-03-01T16:41:43;6.90;86.00
24232;DHT22;12364;47.810;8.810;2023-03-01T16:44:10;6.80;86.00
24232;DHT22;12364;47.810;8.810;2023-03-01T16:46:37;6.80;86.00
24232;DHT22;12364;47.810;8.810;2023-03-01T16:49:04;6.80;86.10
24232;DHT22;12364;47.810;8.810;2023-03-01T16:51:31;6.70;85.90
24232;DHT22;12364;47.810;8.810;2023-03-01T16:54:01;6.70;85.90
24232;DHT22;12364;47.810;8.810;2023-03-01T16:56:31;6.70;86.10
24232;DHT22;12364;47.810;8.810;2023-03-01T16:59:01;6.70;86.40
24232;DHT22;12364;47.810;8.810;2023-03-01T17:01:32;6.70;86.20
24232;DHT22;12364;47.810;8.810;2023-03-01T17:04:06;6.70;86.30
24232;DHT22;12364;47.810;8.810;2023-03-01T17:06:33;6.70;86.50
24232;DHT22;12364;47.810;8.810;2023-03-01T17:09:01;6.60;86.30
24232;DHT22;12364;47.810;8.810;2023-03-01T17:11:28;6.70;86.50
24232;DHT22;12364;47.810;8.810;2023-03-01T17:13:56;6.70;86.60
24232;DHT22;12364;47.810;8.810;2023-03-01T17:16:23;6.70;86.70
24232;DHT22;12364;47.810;8.810;2023-03-01T17:18:50;6.60;86.80
24232;DHT22;12364;47.810;8.810;2023-03-01T17:21:17;6.60;86.80
24232;DHT22;12364;47.810;8.810;2023-03-01T17:23:44;6.60;86.90
24232;DHT22;12364;47.810;8.810;2023-03-01T17:26:12;6.60;87.00
24232;DHT22;12364;47.810;8.810;2023-03-01T17:28:39;6.60;87.10
24232;DHT22;12364;47.810;8.810;2023-03-01T17:31:06;6.60;87.40
24232;DHT22;12364;47.810;8.810;2023-03-01T17:33:33;6.60;87.50
24232;DHT22;12364;47.810;8.810;2023-03-01T17:36:01;6.60;87.40
24232;DHT22;12364;47.810;8.810;2023-03-01T17:38:28;6.70;87.40
24232;DHT22;12364;47.810;8.810;2023-03-01T17:40:57;6.70;87.30
24232;DHT22;12364;47.810;8.810;2023-03-01T17:43:24;6.70;87.20
24232;DHT22;12364;47.810;8.810;2023-03-01T17:45:51;6.70;87.20
24232;DHT22;12364;47.810;8.810;2023-03-01T17:48:20;6.70;87.50
24232;DHT22;12364;47.810;8.810;2023-03-01T17:50:47;6.70;87.40
24232;DHT22;12364;47.810;8.810;2023-03-01T17:53:14;6.70;87.40
24232;DHT22;12364;47.810;8.810;2023-03-01T17:55:42;6.70;87.30
24232;DHT22;12364;47.810;8.810;2023-03-01T17:58:11;6.80;87.40
24232;DHT22;12364;47.810;8.810;2023-03-01T18:00:38;6.70;87.60
24232;DHT22;12364;47.810;8.810;2023-03-01T18:03:05;6.70;87.40
24232;DHT22;12364;47.810;8.810;2023-03-01T18:05:33;6.70;87.30
24232;DHT22;12364;47.810;8.810;2023-03-01T18:08:00;6.70;87.60
24232;DHT22;12364;47.810;8.810;2023-03-01T18:10:27;6.60;87.60
24232;DHT22;12364;47.810;8.810;2023-03-01T18:12:54;6.50;87.80
24232;DHT22;12364;47.810;8.810;2023-03-01T18:15:22;6.40;87.90
24232;DHT22;12364;47.810;8.810;2023-03-01T18:17:49;6.40;87.90
24232;DHT22;12364;47.810;8.810;2023-03-01T18:20:16;6.40;87.80
24232;DHT22;12364;47.810;8.810;2023-03-01T18:22:44;6.40;87.80
24232;DHT22;12364;47.810;8.810;2023-03-01T18:25:11;6.40;87.90
24232;DHT22;12364;47.810;8.810;2023-03-01T18:27:38;6.40;87.90
24232;DHT22;12364;47.810;8.810;2023-03-01T18:30:06;6.40;88.00
24232;DHT22;12364;47.810;8.810;2023-03-01T18:32:33;6.50;87.90
24232;DHT22;12364;47.810;8.810;2023-03-01T18:35:00;6.40;88.00
24232;DHT22;12364;47.810;8.810;2023-03-01T18:37:27;6.50;87.90
24232;DHT22;12364;47.810;8.810;2023-03-01T18:39:54;6.50;88.20
24232;DHT22;12364;47.810;8.810;2023-03-01T18:42:21;6.50;88.00
24232;DHT22;12364;47.810;8.810;2023-03-01T18:44:48;6.50;88.00
24232;DHT22;12364;47.810;8.810;2023-03-01T18:47:16;6.60;88.40
24232;DHT22;12364;47.810;8.810;2023-03-01T18:49:43;6.60;88.30
24232;DHT22;12364;47.810;8.810;2023-03-01T18:52:10;6.60;88.20
24232;DHT22;12364;47.810;8.810;2023-03-01T18:54:37;6.60;88.20
24232;DHT22;12364;47.810;8.810;2023-03-01T18:57:04;6.60;87.90
24232;DHT22;12364;47.810;8.810;2023-03-01T18:59:31;6.70;87.80
24232;DHT22;12364;47.810;8.810;2023-03-01T19:01:58;6.70;87.60
24232;DHT22;12364;47.810;8.810;2023-03-01T19:04:25;6.70;87.90
24232;DHT22;12364;47.810;8.810;2023-03-01T19:06:53;6.70;87.90
24232;DHT22;12364;47.810;8.810;2023-03-01T19:09:20;6.70;87.60
24232;DHT22;12364;47.810;8.810;2023-03-01T19:11:46;6.80;87.70
24232;DHT22;12364;47.810;8.810;2023-03-01T19:14:13;6.80;87.90
24232;DHT22;12364;47.810;8.810;2023-03-01T19:16:40;6.70;87.90
24232;DHT22;12364;47.810;8.810;2023-03-01T19:19:08;6.70;88.10
24232;DHT22;12364;47.810;8.810;2023-03-01T19:21:35;6.60;88.20
24232;DHT22;12364;47.810;8.810;2023-03-01T19:24:02;6.60;88.20
24232;DHT22;12364;47.810;8.810;2023-03-01T19:26:30;6.60;88.40
24232;DHT22;12364;47.810;8.810;2023-03-01T19:28:58;6.70;88.10
24232;DHT22;12364;47.810;8.810;2023-03-01T19:31:26;6.70;88.10
24232;DHT22;12364;47.810;8.810;2023-03-01T19:33:54;6.70;88.00
24232;DHT22;12364;47.810;8.810;2023-03-01T19:36:38;6.70;87.90
24232;DHT22;12364;47.810;8.810;2023-03-01T19:39:05;6.90;88.00
24232;DHT22;12364;47.810;8.810;2023-03-01T19:41:32;6.70;87.80
24232;DHT22;12364;47.810;8.810;2023-03-01T19:44:00;6.70;87.90
24232;DHT22;12364;47.810;8.810;2023-03-01T19:46:31;6.70;88.10
24232;DHT22;12364;47.810;8.810;2023-03-01T19:48:59;6.60;88.20
24232;DHT22;12364;47.810;8.810;2023-03-01T19:51:29;6.70;87.90
24232;DHT22;12364;47.810;8.810;2023-03-01T19:53:56;6.70;88.00
24232;DHT22;12364;47.810;8.810;2023-03-01T19:56:23;6.70;88.10
24232;DHT22;12364;47.810;8.810;2023-03-01T19:58:50;6.80;88.10
24232;DHT22;12364;47.810;8.810;2023-03-01T20:01:20;6.80;87.90
24232;DHT22;12364;47.810;8.810;2023-03-01T20:03:47;6.80;88.00
24232;DHT22;12364;47.810;8.810;2023-03-01T20:06:15;6.80;88.00
24232;DHT22;12364;47.810;8.810;2023-03-01T20:08:44;6.80;87.80
24232;DHT22;12364;47.810;8.810;2023-03-01T20:11:12;6.70;87.90
24232;DHT22;12364;47.810;8.810;2023-03-01T20:13:39;6.70;88.10
24232;DHT22;12364;47.810;8.810;2023-03-01T20:16:07;6.70;88.00
24232;DHT22;12364;47.810;8.810;2023-03-01T20:18:34;6.70;88.30
24232;DHT22;12364;47.810;8.810;2023-03-01T20:21:02;6.70;88.20
24232;DHT22;12364;47.810;8.810;2023-03-01T20:23:33;6.70;88.30
24232;DHT22;12364;47.810;8.810;2023-03-01T20:26:07;6.80;88.20
24232;DHT22;12364;47.810;8.810;2023-03-01T20:28:35;6.80;88.00
24232;DHT22;12364;47.810;8.810;2023-03-01T20:31:06;6.70;88.20
24232;DHT22;12364;47.810;8.810;2023-03-01T20:33:33;6.70;88.40
24232;DHT22;12364;47.810;8.810;2023-03-01T20:36:01;6.70;88.40
24232;DHT22;12364;47.810;8.810;2023-03-01T20:38:28;6.80;88.70
24232;DHT22;12364;47.810;8.810;2023-03-01T20:40:56;6.80;89.10
24232;DHT22;12364;47.810;8.810;2023-03-01T20:43:23;6.80;89.10
24232;DHT22;12364;47.810;8.810;2023-03-01T20:45:50;6.80;88.90
24232;DHT22;12364;47.810;8.810;2023-03-01T20:48:17;6.90;88.80
24232;DHT22;12364;47.810;8.810;2023-03-01T20:50:44;6.80;88.70
24232;DHT22;12364;47.810;8.810;2023-03-01T20:53:11;6.80;89.00
24232;DHT22;12364;47.810;8.810;2023-03-01T20:55:38;6.80;89.10
24232;DHT22;12364;47.810;8.810;2023-03-01T20:58:05;6.80;89.10
24232;DHT22;12364;47.810;8.810;2023-03-01T21:00:32;6.80;88.70
24232;DHT22;12364;47.810;8.810;2023-03-01T21:02:59;6.80;88.90
24232;DHT22;12364;47.810;8.810;2023-03-01T21:05:26;6.80;89.10
24232;DHT22;12364;47.810;8.810;2023-03-01T21:07:53;6.80;89.30
24232;DHT22;12364;47.810;8.810;2023-03-01T21:10:20;6.70;89.60
24232;DHT22;12364;47.810;8.810;2023-03-01T21:12:47;6.80;89.50
24232;DHT22;12364;47.810;8.810;2023-03-01T21:15:14;6.80;89.20
24232;DHT22;12364;47.810;8.810;2023-03-01T21:17:54;6.80;89.30
24232;DHT22;12364;47.810;8.810;2023-03-01T21:20:21;6.80;89.30
24232;DHT22;12364;47.810;8.810;2023-03-01T21:22:48;6.80;89.60
24232;DHT22;12364;47.810;8.810;2023-03-01T21:25:15;6.80;89.50
24232;DHT22;12364;47.810;8.810;2023-03-01T21:27:42;6.90;89.50
24232;DHT22;12364;47.810;8.810;2023-03-01T21:30:09;6.90;89.50
24232;DHT22;12364;47.810;8.810;2023-03-01T21:32:36;6.90;89.50
24232;DHT22;12364;47.810;8.810;2023-03-01T21:35:04;6.90;89.50
24232;DHT22;12364;47.810;8.810;2023-03-01T21:37:31;6.90;89.80
24232;DHT22;12364;47.810;8.810;2023-03-01T21:39:58;6.90;89.80
24232;DHT22;12364;47.810;8.810;2023-03-01T21:42:24;6.90;90.00
24232;DHT22;12364;47.810;8.810;2023-03-01T21:44:51;6.90;89.80
24232;DHT22;12364;47.810;8.810;2023-03-01T21:47:18;6.90;89.80
24232;DHT22;12364;47.810;8.810;2023-03-01T21:49:45;6.90;89.90
24232;DHT22;12364;47.810;8.810;2023-03-01T21:52:12;6.90;90.00
24232;DHT22;12364;47.810;8.810;2023-03-01T21:54:43;6.90;90.00
24232;DHT22;12364;47.810;8.810;2023-03-01T21:57:10;6.80;90.00
24232;DHT22;12364;47.810;8.810;2023-03-01T21:59:37;6.90;90.10
24232;DHT22;12364;47.810;8.810;2023-03-01T22:02:04;6.80;90.10
24232;DHT22;12364;47.810;8.810;2023-03-01T22:04:31;6.90;90.20
24232;DHT22;12364;47.810;8.810;2023-03-01T22:06:58;6.90;90.20
24232;DHT22;12364;47.810;8.810;2023-03-01T22:09:25;6.80;90.20
24232;DHT22;12364;47.810;8.810;2023-03-01T22:11:53;6.90;90.30
24232;DHT22;12364;47.810;8.810;2023-03-01T22:14:20;6.80;90.30
24232;DHT22;12364;47.810;8.810;2023-03-01T22:16:47;6.80;90.30
24232;DHT22;12364;47.810;8.810;2023-03-01T22:19:17;6.80;90.30
24232;DHT22;12364;47.810;8.810;2023-03-01T22:21:45;6.80;90.30
24232;DHT22;12364;47.810;8.810;2023-03-01T22:24:12;6.90;90.40
24232;DHT22;12364;47.810;8.810;2023-03-01T22:26:41;6.90;90.30
24232;DHT22;12364;47.810;8.810;2023-03-01T22:29:10;6.90;90.20
24232;DHT22;12364;47.810;8.810;2023-03-01T22:31:37;6.90;90.20